Bookmark and Share
Track history (hours):
 

Zenith Leader

Last reported at 2014-Apr-23 18:32 UTC. Time now 2014-Apr-24 03:52 UTC.
Position N 37°51' E 015°45'.

Length 199 m; draft 8.4 m.

Type: Cargo ship. MMSI: 235058697.

NotesDate/timePositionNaut miles runAvg speedWind from/ knotsBaromVisibWave heightAir tempDewpointWater temp
2014-Apr-23 18:32N 37°51' E 015°45'1715.0
2014-Apr-23 17:26N 37°45' E 016°05'33915.5
2014-Apr-22 19:33N 36°05' E 022°50'1514.9
2014-Apr-22 18:33N 36°06' E 023°09'1615.6
2014-Apr-22 17:32N 36°20' E 023°18'1615.9
2014-Apr-22 16:33N 36°35' E 023°24'1616.0
2014-Apr-22 15:33N 36°50' E 023°31'2315.7
2014-Apr-22 14:04N 37°13' E 023°37'1616.0
2014-Apr-22 13:05N 37°28' E 023°40'917.6
2014-Apr-22 12:33N 37°38' E 023°41'1515.3
2014-Apr-22 11:34N 37°53' E 023°37'5 4.9
2014-Apr-22 10:33N 37°58' E 023°36'0 0.0
2014-Apr-22 09:33N 37°58' E 023°36'0 0.0
2014-Apr-22 08:33N 37°58' E 023°36'0 0.0
2014-Apr-22 07:33N 37°58' E 023°36'0 0.0
2014-Apr-22 06:33N 37°58' E 023°36'0 0.0
2014-Apr-22 05:33N 37°58' E 023°36'0 0.0
2014-Apr-22 04:33N 37°57' E 023°36'4 3.8
2014-Apr-22 03:33N 37°54' E 023°36'2 2.1
2014-Apr-22 02:34N 37°52' E 023°37'5 5.4
2014-Apr-22 01:33N 37°47' E 023°41'9 8.9
2014-Apr-22 00:33N 37°39' E 023°45'10 9.7
2014-Apr-21 23:34N 37°30' E 023°39'2 1.5
2014-Apr-21 22:30N 37°29' E 023°40'2 1.3
2014-Apr-21 21:21N 37°28' E 023°42'1 1.3
2014-Apr-21 20:28N 37°29' E 023°43'2 1.1
2014-Apr-21 18:32N 37°31' E 023°42'0 0.4
2014-Apr-21 17:32N 37°31' E 023°42'1 0.6
2014-Apr-21 16:26N 37°30' E 023°42'0 0.5
2014-Apr-21 15:29N 37°30' E 023°41'3 1.4
2014-Apr-21 13:32N 37°28' E 023°38'1 1.2
2014-Apr-21 12:33N 37°28' E 023°37'1 0.9
2014-Apr-21 11:30N 37°27' E 023°37'1 0.9
2014-Apr-21 10:33N 37°26' E 023°37'4 3.9
2014-Apr-21 09:31N 37°30' E 023°39'3 2.8
2014-Apr-21 08:29N 37°32' E 023°40'1 0.9
2014-Apr-21 07:26N 37°32' E 023°39'1 1.0
2014-Apr-21 06:08N 37°30' E 023°39'1 0.8
2014-Apr-21 05:23N 37°30' E 023°38'2 0.8
2014-Apr-21 03:14N 37°28' E 023°37'0 0.6
2014-Apr-21 02:26N 37°28' E 023°37'2 0.9
2014-Apr-21 00:31N 37°29' E 023°39'4 4.5
2014-Apr-20 23:33N 37°33' E 023°42'1 1.0
2014-Apr-20 22:33N 37°32' E 023°41'2 0.9
2014-Apr-20 20:33N 37°31' E 023°39'1 0.9
2014-Apr-20 19:33N 37°30' E 023°38'1 0.8
2014-Apr-20 18:33N 37°29' E 023°38'1 1.0
2014-Apr-20 17:24N 37°28' E 023°38'1 1.0
2014-Apr-20 16:33N 37°28' E 023°39'7 7.3
2014-Apr-20 15:32N 37°30' E 023°47'1 1.2
2014-Apr-20 14:27N 37°30' E 023°46'1 1.5
2014-Apr-20 13:33N 37°29' E 023°45'1 1.4
2014-Apr-20 12:33N 37°28' E 023°44'1 1.4
2014-Apr-20 11:33N 37°27' E 023°42'5 4.8
2014-Apr-20 10:32N 37°32' E 023°43'1 1.1
2014-Apr-20 09:31N 37°33' E 023°43'1 0.9
2014-Apr-20 08:31N 37°32' E 023°44'1 0.8
2014-Apr-20 07:31N 37°31' E 023°43'1 0.6
2014-Apr-20 06:31N 37°31' E 023°43'1 0.3
2014-Apr-20 04:10N 37°30' E 023°43'2 3.9
2014-Apr-20 03:32N 37°32' E 023°44'5213.0
2014-Apr-19 23:32N 37°09' E 024°42'1615.9
2014-Apr-19 22:33N 36°56' E 024°53'2115.0
2014-Apr-19 21:07N 36°50' E 025°18'915.6
2014-Apr-19 20:34N 36°46' E 025°28'1615.5
2014-Apr-19 19:33N 36°38' E 025°45'1615.8
2014-Apr-19 18:33N 36°30' E 026°02'1615.9
2014-Apr-19 17:33N 36°22' E 026°19'1715.7
2014-Apr-19 16:30N 36°14' E 026°37'28615.6
2014-Apr-18 22:10N 35°55' E 032°30'1615.8
2014-Apr-18 21:10N 35°55' E 032°49'129 3.0
2014-Apr-17 01:33N 33°58' E 033°57'1615.3
2014-Apr-17 00:33N 33°44' E 033°50'1515.5
2014-Apr-16 23:33N 33°31' E 033°41'1615.9
2014-Apr-16 22:33N 33°16' E 033°33'1615.7
2014-Apr-16 21:33N 33°02' E 033°25'1615.7
2014-Apr-16 20:33N 32°48' E 033°16'1715.5
2014-Apr-16 19:27N 32°33' E 033°08'1415.4
2014-Apr-16 18:32N 32°20' E 033°00'1615.6
2014-Apr-16 17:33N 32°06' E 032°52'  

Dump ship's entire track history

sailing weather and tide predictions

Zenith Leader — 2ACU6 — position and weather